Garve, United Kingdom
Current Conditions -  °F | °C
As of 6:20 PM on Saturday 20 Dec 2014 (Local Time) from EGPE Reporting Station
Few Clouds Few Clouds  
Wind Chill: 31°   Ceiling: Unl
Heat Index: 37°   Visibility: 6mi
Dew Point: 34°   Wind: 8mph
Humidity: 87%   Direction: 250°WSW
Pressure: 30.12"   Gusts: NA
Location:  57.68°N, 4.69°W
Report Text: EGPE 201820Z 25007KT 9999 FEW035 03/01 Q1020
Loading
Personal Weather Stations






























Interactive Weather Map New forecast layout! Learn more

10-Day Weather Forecast

Advertisements
Track Severe Weather on mobile